Terrebonne, OR (97760)

3:14 PM PST on February 09, 2016 (GMT -0800)
Odin Falls Ranch | | Change Station
CLOSE
Current Station
Personal Weather Station
Location: Redmond, OR
Elevation: 2785 ft
Nearby Weather Stations

Elev 2785 ft 44.33 °N, 121.26 °W | Updated 1 second ago

Clear
Clear
53.4 °F
Feels Like 53.4 °F
N
6.9
Wind Variable Wind from WNW
Gusts 6.9 mph

Today
High -- | Low -- °F
--% Chance of Precip.
Yesterday
High -- | Low -- °F
Precip. -- in
Pressure 30.23 in
Visibility 10.0 miles
Clouds Clear
Dew Point 41 °F
Humidity 62%
Rainfall 0.00 in
Snow Depth Not available.
7:13 AM 5:25 PM
New Moon, 2% visible
METAR KRDM 092256Z 13005KT 10SM CLR 18/01 A3022 RMK AO2 SLP237 T01780006
Pressure 30.23 in
Visibility 10.0 miles
Clouds Clear
Dew Point 41 °F
Humidity 62%
Rainfall 0.00 in
Snow Depth Not available.
7:13 AM 5:25 PM
New Moon, 2% visible
METAR KRDM 092256Z 13005KT 10SM CLR 18/01 A3022 RMK AO2 SLP237 T01780006

10-Day Weather Forecast

Almanac

Astronomy

Feb. 09, 2016 Rise Set
Actual Time
Civil Twilight
Nautical Twilight
Astronomical Twilight
Moon
Length of Visible Light
Length of Day
Tomorrow will be .
, % of the Moon is Illuminated

Today's Extremes

State Highs State Lows

Community

WunderPhotos

Upload Photos

1,891,728 photos uploaded!

WunderBlog® & News

Nearby

Air Quality

  Air Quality AQ Index Pollutant
Not available.

Snow Depth

Station Depth Elevation

Earthquake Activity

City Distance Mag. Time & Date
Minimum magnitude displayed is 2.5.

Coastal Water Temperatures

Place Temperature

Stations

Nearby Weather Stations

Station Location Temp. Windchill Dew Point Humidity Wind Precip. Elev Updated Type
                   

Watches & Warnings

There are currently no watches in effect.